METAR AND TAF INFORMATION
METAR FOR LECO
ADDS - METARS form results

(1647 UTC 15 January 2021)
Data provider http://aviationweather.gov/metar/data/
 
METAR text: LECO 151630Z VRB02KT CAVOK 12/05 Q1029 NOSIG
Conditions at: LECO (LA CORUNA/ALVEDR, ES) observed 1630 UTC 15 January 2021
Temperature: 12.0°C (54°F)
Dewpoint: 5.0°C (41°F) [RH = 62%]
Pressure (altimeter): 30.38 inches Hg (1029.0 mb)
Winds: variable direction winds at 2 MPH (2 knots; 1.0 m/s)
Visibility: 6 or more miles (10+ km)
Ceiling: ceiling and visibility are OK
Clouds: unknown
Weather: no significant weather observed at this time

METAR text: LECO 151600Z 17003KT 110V210 CAVOK 12/05 Q1029 NOSIG
Conditions at: LECO (LA CORUNA/ALVEDR, ES) observed 1600 UTC 15 January 2021
Temperature: 12.0°C (54°F)
Dewpoint: 5.0°C (41°F) [RH = 62%]
Pressure (altimeter): 30.38 inches Hg (1029.0 mb)
Winds: from the S (170 degrees) at 3 MPH (3 knots; 1.5 m/s)
Visibility: 6 or more miles (10+ km)
Ceiling: ceiling and visibility are OK
Clouds: unknown
Weather: no significant weather observed at this time

Forecast for: LECO (LA CORUNA/ALVEDR, ES)
Text: TAF LECO 151400Z 1515/1615 VRB04KT 9999 SCT030 TX14/1614Z TN06/1609Z
Forecast period: 1500 UTC 15 January 2021 to 1500 UTC 16 January 2021
Forecast type: FROM: standard forecast or significant change
Winds: variable direction winds at 5 MPH (4 knots; 2.1 m/s)
Visibility: 6 or more miles (10+ km)
Ceiling: at least 12,000 feet AGL
Clouds: scattered clouds at 3000 feet AGL
Weather: no significant weather forecast for this period

 AIRPORT MAP

 RUNWAY INFORMATION
Runway 03 Runway length 6358 ft Runway width 148 ft
Runway elevation 327 ft Runway displaced threshold 0 ft Runway heading 31
Runway 21 Runway length 6358 ft Runway width 148 ft
Runway elevation 286 ft Runway displaced threshold 0 ft Runway heading 211

 AIRPORT FREQUENCIES
Type APP Name SANTIAGO A Frequency 120.2 MHZ
Type GND Name GND Frequency 121.7 MHZ
Type TWR Name A Coruña T Frequency 118.3 MHZ

 AIRPORT NEAR NAVIGATION AIDS
Type NDB Name La Coruna Frequency 401 KHZ
Type VOR-DME Name La Coruna Frequency 115100 KHZ